Time;durP1;ratioP1;P1;durP2;ratioP2;P2;SDS_P1;SDS_P2;PMS_P1;PMS_P2;Temp;Humidity;BMP_temperature;BMP_pressure;BME280_temperature;BME280_humidity;BME280_pressure;Samples;Min_cycle;Max_cycle;Signal;HPM_P1;HPM_P2
2023/09/19 00:01:31;;;;;;;;;;;;;;;-140.72;100.00;52814.97;5071259;28;19927;-67
2023/09/19 00:03:58;;;;;;;;;;;;;;;-140.72;100.00;52788.59;5068944;28;19921;-67
2023/09/19 00:06:25;;;;;;;;;;;;;;;-140.72;100.00;52851.50;5069769;28;19947;-67
2023/09/19 00:08:51;;;;;;;;;;;;;;;-140.72;100.00;52800.75;5071653;28;19994;-67
2023/09/19 00:11:16;;;;;;;;;;;;;;;-140.72;100.00;52800.75;5067864;28;20733;-67
2023/09/19 00:13:41;;;;;;;;;;;;;;;-140.72;100.00;52837.28;5065930;28;19965;-66
2023/09/19 00:16:10;;;;;;;;;;;;;;;-140.72;100.00;52772.34;5070297;28;19975;-66
2023/09/19 00:18:36;;;;;;;;;;;;;;;-140.72;100.00;52796.72;5069584;28;19920;-66
2023/09/19 00:21:04;;;;;;;;;;;;;;;-140.72;100.00;52786.56;5067031;28;19928;-65
2023/09/19 00:23:31;;;;;;;;;;;;;;;-140.72;100.00;52843.38;5069067;28;19942;-66
2023/09/19 00:25:58;;;;;;;;;;;;;;;-140.72;100.00;52812.94;5068390;28;19927;-66
2023/09/19 00:28:23;;;;;;;;;;;;;;;-140.72;100.00;52823.09;5066698;28;19929;-66
2023/09/19 00:30:51;;;;;;;;;;;;;;;-140.72;100.00;52804.81;5069084;28;20545;-66
2023/09/19 00:33:18;;;;;;;;;;;;;;;-140.72;100.00;52817.00;5071079;28;19924;-67
2023/09/19 00:36:05;;;;;;;;;;;;;;;-140.72;100.00;52808.88;5068146;28;19921;-70
2023/09/19 00:38:31;;;;;;;;;;;;;;;-140.72;100.00;52780.47;5068030;28;20543;-68
2023/09/19 00:40:57;;;;;;;;;;;;;;;-140.72;100.00;52798.72;5073202;28;19935;-68
2023/09/19 00:43:23;;;;;;;;;;;;;;;-140.72;100.00;52776.41;5073082;28;19924;-67
2023/09/19 00:45:51;;;;;;;;;;;;;;;-140.72;100.00;52784.53;5068429;28;20375;-67
2023/09/19 00:48:17;;;;;;;;;;;;;;;-140.72;100.00;52798.72;5071228;28;19935;-67
2023/09/19 00:50:43;;;;;;;;;;;;;;;-140.72;100.00;52788.59;5069415;28;20307;-67
2023/09/19 00:53:09;;;;;;;;;;;;;;;-140.72;100.00;52823.09;5063868;28;19971;-67
2023/09/19 00:55:37;;;;;;;;;;;;;;;-140.72;100.00;52843.38;5070717;28;19963;-67
2023/09/19 00:58:03;;;;;;;;;;;;;;;-140.72;100.00;52810.91;5075460;28;19921;-67
2023/09/19 01:00:28;;;;;;;;;;;;;;;-140.72;100.00;52798.72;5068052;28;19921;-67
2023/09/19 01:02:53;;;;;;;;;;;;;;;-140.72;100.00;52794.69;5066624;28;19966;-67
2023/09/19 01:05:19;;;;;;;;;;;;;;;-140.72;100.00;52800.75;5068934;28;20456;-67
2023/09/19 01:07:44;;;;;;;;;;;;;;;-140.72;100.00;52829.19;5072663;28;19920;-67
2023/09/19 01:10:11;;;;;;;;;;;;;;;-140.72;100.00;52788.59;5072491;28;19969;-67
2023/09/19 01:12:52;;;;;;;;;;;;;;;-140.72;100.00;52810.91;5064713;28;19931;-67
2023/09/19 01:15:17;;;;;;;;;;;;;;;-140.72;100.00;52768.28;5065359;28;19929;-67
2023/09/19 01:17:46;;;;;;;;;;;;;;;-140.72;100.00;52794.69;5069062;28;20322;-67
2023/09/19 01:20:16;;;;;;;;;;;;;;;-140.72;100.00;52760.19;5071939;28;19921;-67
2023/09/19 01:23:08;;;;;;;;;;;;;;;-140.72;100.00;52786.56;5065788;28;19967;-67
2023/09/19 01:25:51;;;;;;;;;;;;;;;-140.72;100.00;52821.06;5064284;28;20019;-67
2023/09/19 01:28:36;;;;;;;;;;;;;;;-140.72;100.00;52796.72;5066419;28;20375;-67
2023/09/19 01:31:03;;;;;;;;;;;;;;;-140.72;100.00;52825.13;5065920;28;20042;-67
2023/09/19 01:33:33;;;;;;;;;;;;;;;-140.72;100.00;52782.50;5064843;28;19921;-67
2023/09/19 01:35:58;;;;;;;;;;;;;;;-140.72;100.00;52802.78;5065797;28;19928;-67
2023/09/19 01:38:24;;;;;;;;;;;;;;;-140.72;100.00;52745.97;5067091;28;20379;-67
2023/09/19 01:41:04;;;;;;;;;;;;;;;-140.72;100.00;52798.72;5067503;28;19936;-67
2023/09/19 01:43:42;;;;;;;;;;;;;;;-140.72;100.00;52778.44;5068173;28;19920;-67
2023/09/19 01:46:29;;;;;;;;;;;;;;;-140.72;100.00;52776.41;5063088;28;19925;-67
2023/09/19 01:48:58;;;;;;;;;;;;;;;-140.72;100.00;52790.63;5067607;28;20384;-67
2023/09/19 01:51:32;;;;;;;;;;;;;;;-140.72;100.00;52776.41;5059981;28;19936;-67
2023/09/19 01:54:08;;;;;;;;;;;;;;;-140.72;100.00;52784.53;5069461;28;19920;-67
2023/09/19 01:56:36;;;;;;;;;;;;;;;-140.72;100.00;52768.28;5062409;28;19925;-67
2023/09/19 01:59:04;;;;;;;;;;;;;;;-140.72;100.00;52788.59;5068346;28;19921;-67
2023/09/19 02:01:31;;;;;;;;;;;;;;;-140.72;100.00;52772.34;5057791;28;20448;-67
2023/09/19 02:03:56;;;;;;;;;;;;;;;-140.72;100.00;52810.91;5067625;28;20015;-68
2023/09/19 02:06:21;;;;;;;;;;;;;;;-140.72;100.00;52772.34;5066303;28;20019;-67
2023/09/19 02:08:54;;;;;;;;;;;;;;;-140.72;100.00;52827.16;5073917;28;19920;-67
2023/09/19 02:11:19;;;;;;;;;;;;;;;-140.72;100.00;52802.78;5073064;28;19928;-67
2023/09/19 02:13:45;;;;;;;;;;;;;;;-140.72;100.00;52764.25;5070826;28;19921;-67
2023/09/19 02:16:10;;;;;;;;;;;;;;;-140.72;100.00;52796.72;5067727;28;19935;-67
2023/09/19 02:18:36;;;;;;;;;;;;;;;-140.72;100.00;52760.19;5065589;28;19921;-67
2023/09/19 02:21:02;;;;;;;;;;;;;;;-140.72;100.00;52796.72;5067230;28;19959;-67
2023/09/19 02:23:27;;;;;;;;;;;;;;;-140.72;100.00;52808.88;5068525;28;19920;-68
2023/09/19 02:25:53;;;;;;;;;;;;;;;-140.72;100.00;52792.66;5070491;28;19935;-68
2023/09/19 02:28:18;;;;;;;;;;;;;;;-140.72;100.00;52792.66;5065512;28;19921;-67
2023/09/19 02:30:47;;;;;;;;;;;;;;;-140.72;100.00;52804.81;5070072;28;19933;-67
2023/09/19 02:33:13;;;;;;;;;;;;;;;-140.72;100.00;52804.81;5066230;28;19928;-67
2023/09/19 02:35:38;;;;;;;;;;;;;;;-140.72;100.00;52758.16;5068048;28;19929;-67
2023/09/19 02:38:06;;;;;;;;;;;;;;;-140.72;100.00;52786.56;5079305;28;19927;-67
2023/09/19 02:40:31;;;;;;;;;;;;;;;-140.72;100.00;52786.56;5065477;28;21831;-67
2023/09/19 02:42:59;;;;;;;;;;;;;;;-140.72;100.00;52784.53;5069527;28;19964;-67
2023/09/19 02:45:25;;;;;;;;;;;;;;;-140.72;100.00;52817.00;5065589;28;20015;-67
2023/09/19 02:47:50;;;;;;;;;;;;;;;-140.72;100.00;52802.78;5063674;28;19924;-67
2023/09/19 02:50:16;;;;;;;;;;;;;;;-140.72;100.00;52835.25;5064656;28;20397;-67
2023/09/19 02:52:44;;;;;;;;;;;;;;;-140.72;100.00;52784.53;5070305;28;19986;-67
2023/09/19 02:55:10;;;;;;;;;;;;;;;-140.72;100.00;52812.94;5071786;28;19947;-67
2023/09/19 02:57:36;;;;;;;;;;;;;;;-140.72;100.00;52796.72;5071228;28;20375;-67
2023/09/19 03:00:02;;;;;;;;;;;;;;;-140.72;100.00;52819.03;5071047;28;20007;-67
2023/09/19 03:02:27;;;;;;;;;;;;;;;-140.72;100.00;52790.63;5071763;28;19924;-67
2023/09/19 03:04:53;;;;;;;;;;;;;;;-140.72;100.00;52778.44;5067621;28;19944;-67
2023/09/19 03:07:18;;;;;;;;;;;;;;;-140.72;100.00;52768.28;5071509;28;19920;-67
2023/09/19 03:09:44;;;;;;;;;;;;;;;-140.72;100.00;52794.69;5073852;28;19921;-67
2023/09/19 03:12:10;;;;;;;;;;;;;;;-140.72;100.00;52788.59;5070948;28;20404;-67
2023/09/19 03:14:35;;;;;;;;;;;;;;;-140.72;100.00;52784.53;5070776;28;20369;-67
2023/09/19 03:17:01;;;;;;;;;;;;;;;-140.72;100.00;52792.66;5069496;28;20329;-66
2023/09/19 03:19:26;;;;;;;;;;;;;;;-140.72;100.00;52804.81;5070376;28;19943;-66
2023/09/19 03:21:51;;;;;;;;;;;;;;;-140.72;100.00;52819.03;5069160;28;19951;-66
2023/09/19 03:24:16;;;;;;;;;;;;;;;-140.72;100.00;52794.69;5067147;28;19967;-66
2023/09/19 03:26:42;;;;;;;;;;;;;;;-140.72;100.00;52784.53;5068190;28;19947;-66
2023/09/19 03:29:08;;;;;;;;;;;;;;;-140.72;100.00;52780.47;5069750;28;20438;-66
2023/09/19 03:31:36;;;;;;;;;;;;;;;-140.72;100.00;52819.03;5069472;28;19982;-66
2023/09/19 03:34:01;;;;;;;;;;;;;;;-140.72;100.00;52790.63;5072906;28;19920;-66
2023/09/19 03:36:28;;;;;;;;;;;;;;;-140.72;100.00;52784.53;5064327;28;20295;-66
2023/09/19 03:38:53;;;;;;;;;;;;;;;-140.72;100.00;52808.88;5070526;28;20444;-66
2023/09/19 03:41:19;;;;;;;;;;;;;;;-140.72;100.00;52819.03;5065250;28;19932;-66
2023/09/19 03:43:45;;;;;;;;;;;;;;;-140.72;100.00;52812.94;5067120;28;19955;-67
2023/09/19 03:46:12;;;;;;;;;;;;;;;-140.72;100.00;52800.75;5067794;28;20387;-66
2023/09/19 03:48:37;;;;;;;;;;;;;;;-140.72;100.00;52812.94;5062726;28;19928;-66
2023/09/19 03:51:03;;;;;;;;;;;;;;;-140.72;100.00;52821.06;5064377;28;20940;-66
2023/09/19 03:53:28;;;;;;;;;;;;;;;-140.72;100.00;52829.19;5069562;28;19943;-66
2023/09/19 03:55:54;;;;;;;;;;;;;;;-140.72;100.00;52786.56;5066085;28;19921;-66
2023/09/19 03:58:19;;;;;;;;;;;;;;;-140.72;100.00;52831.19;5069747;28;19985;-66
2023/09/19 04:00:45;;;;;;;;;;;;;;;-140.72;100.00;52849.47;5070040;28;20573;-67
2023/09/19 04:03:19;;;;;;;;;;;;;;;-140.72;100.00;52825.13;5069478;28;19920;-66
2023/09/19 04:05:44;;;;;;;;;;;;;;;-140.72;100.00;52804.81;5066253;28;19920;-66
2023/09/19 04:08:09;;;;;;;;;;;;;;;-140.72;100.00;52796.72;5069111;28;19935;-66
2023/09/19 04:10:35;;;;;;;;;;;;;;;-140.72;100.00;52819.03;5078678;28;19920;-67
2023/09/19 04:13:00;;;;;;;;;;;;;;;-140.72;100.00;52780.47;5066968;28;19946;-67
2023/09/19 04:15:26;;;;;;;;;;;;;;;-140.72;100.00;52794.69;5067597;28;19920;-67
2023/09/19 04:17:51;;;;;;;;;;;;;;;-140.72;100.00;52798.72;5068302;28;19935;-67
2023/09/19 04:20:17;;;;;;;;;;;;;;;-140.72;100.00;52802.78;5071297;28;19927;-67
2023/09/19 04:22:43;;;;;;;;;;;;;;;-140.72;100.00;52829.19;5070880;28;19949;-67
2023/09/19 04:25:08;;;;;;;;;;;;;;;-140.72;100.00;52819.03;5071671;28;19925;-67
2023/09/19 04:27:33;;;;;;;;;;;;;;;-140.72;100.00;52808.88;5069093;28;19927;-68
2023/09/19 04:29:59;;;;;;;;;;;;;;;-140.72;100.00;52784.53;5068806;28;19977;-68
2023/09/19 04:32:28;;;;;;;;;;;;;;;-140.72;100.00;52800.75;5069046;28;19925;-68
2023/09/19 04:34:53;;;;;;;;;;;;;;;-140.72;100.00;52804.81;5067817;28;20357;-69
2023/09/19 04:37:19;;;;;;;;;;;;;;;-140.72;100.00;52833.22;5067723;28;20075;-72
2023/09/19 04:39:45;;;;;;;;;;;;;;;-140.72;100.00;52853.53;5069006;28;19996;-68
2023/09/19 04:42:14;;;;;;;;;;;;;;;-140.72;100.00;52814.97;5070274;28;19967;-68
2023/09/19 04:44:39;;;;;;;;;;;;;;;-140.72;100.00;52802.78;5069919;28;20376;-68
2023/09/19 04:47:05;;;;;;;;;;;;;;;-140.72;100.00;52829.19;5067225;28;19963;-68
2023/09/19 04:49:31;;;;;;;;;;;;;;;-140.72;100.00;52841.34;5067633;28;20012;-68
2023/09/19 04:51:56;;;;;;;;;;;;;;;-140.72;100.00;52808.88;5069790;28;19920;-69
2023/09/19 04:54:22;;;;;;;;;;;;;;;-140.72;100.00;52821.06;5068384;28;20290;-69
2023/09/19 04:56:47;;;;;;;;;;;;;;;-140.72;100.00;52819.03;5065704;28;19960;-69
2023/09/19 04:59:12;;;;;;;;;;;;;;;-140.72;100.00;52788.59;5066898;28;19955;-77
2023/09/19 05:01:37;;;;;;;;;;;;;;;-140.72;100.00;52796.72;5066869;28;20366;-67
2023/09/19 05:04:04;;;;;;;;;;;;;;;-140.72;100.00;52796.72;5070366;28;20370;-67
2023/09/19 05:06:44;;;;;;;;;;;;;;;-140.72;100.00;52855.56;5063429;28;19924;-67
2023/09/19 05:09:10;;;;;;;;;;;;;;;-140.72;100.00;52812.94;5065339;28;19960;-67
2023/09/19 05:11:36;;;;;;;;;;;;;;;-140.72;100.00;52814.97;5069190;28;19960;-66
2023/09/19 05:14:03;;;;;;;;;;;;;;;-140.72;100.00;52808.88;5069398;28;19920;-67
2023/09/19 05:16:31;;;;;;;;;;;;;;;-140.72;100.00;52827.16;5067281;28;19924;-67
2023/09/19 05:18:56;;;;;;;;;;;;;;;-140.72;100.00;52853.53;5067579;28;19928;-67
2023/09/19 05:21:22;;;;;;;;;;;;;;;-140.72;100.00;52867.72;5066646;28;20007;-67
2023/09/19 05:23:47;;;;;;;;;;;;;;;-140.72;100.00;52821.06;5064758;28;20370;-67
2023/09/19 05:26:13;;;;;;;;;;;;;;;-140.72;100.00;52845.41;5066660;28;19920;-67
2023/09/19 05:28:38;;;;;;;;;;;;;;;-140.72;100.00;52829.19;5072373;28;20294;-67
2023/09/19 05:31:03;;;;;;;;;;;;;;;-140.72;100.00;52800.75;5071013;28;19951;-67
2023/09/19 05:33:30;;;;;;;;;;;;;;;-140.72;100.00;52814.97;5062899;28;19921;-68
2023/09/19 05:35:56;;;;;;;;;;;;;;;-140.72;100.00;52843.38;5067908;28;19924;-67
2023/09/19 05:38:21;;;;;;;;;;;;;;;-140.72;100.00;52829.19;5064904;28;19920;-79
2023/09/19 05:40:46;;;;;;;;;;;;;;;-140.72;100.00;52823.09;5065498;28;20378;-68
2023/09/19 05:43:14;;;;;;;;;;;;;;;-140.72;100.00;52847.44;5066342;28;19928;-72
2023/09/19 05:45:40;;;;;;;;;;;;;;;-140.72;100.00;52812.94;5070206;28;20344;-69
2023/09/19 05:48:09;;;;;;;;;;;;;;;-140.72;100.00;52833.22;5063681;28;20031;-68
2023/09/19 05:50:36;;;;;;;;;;;;;;;-140.72;100.00;52810.91;5068711;28;20001;-68
2023/09/19 05:53:01;;;;;;;;;;;;;;;-140.72;100.00;52806.84;5067234;28;20357;-69
2023/09/19 05:55:28;;;;;;;;;;;;;;;-140.72;100.00;52835.25;5065872;28;19920;-68
2023/09/19 05:57:54;;;;;;;;;;;;;;;-140.72;100.00;52796.72;5063250;28;19924;-71
2023/09/19 06:00:23;;;;;;;;;;;;;;;-140.72;100.00;52796.72;5063194;28;20059;-68
2023/09/19 06:02:52;;;;;;;;;;;;;;;-140.72;100.00;52814.97;5068618;28;19969;-66
2023/09/19 06:05:17;;;;;;;;;;;;;;;-140.72;100.00;52817.00;5069515;28;20004;-67
2023/09/19 06:07:42;;;;;;;;;;;;;;;-140.72;100.00;52825.13;5071159;28;20015;-67
2023/09/19 06:10:09;;;;;;;;;;;;;;;-140.72;100.00;52788.59;5067250;28;19921;-69
2023/09/19 06:12:38;;;;;;;;;;;;;;;-140.72;100.00;52855.56;5081829;28;19916;-70
2023/09/19 06:15:05;;;;;;;;;;;;;;;-140.72;100.00;52829.19;5082419;28;19927;-69
2023/09/19 06:17:31;;;;;;;;;;;;;;;-140.72;100.00;52829.19;5080493;28;19920;-67
2023/09/19 06:19:56;;;;;;;;;;;;;;;-140.72;100.00;52845.41;5067425;28;19924;-67
2023/09/19 06:22:21;;;;;;;;;;;;;;;-140.72;100.00;52808.88;5059662;28;19924;-67
2023/09/19 06:24:47;;;;;;;;;;;;;;;-140.72;100.00;52812.94;5073089;28;19955;-67
2023/09/19 06:27:12;;;;;;;;;;;;;;;-140.72;100.00;52794.69;5075557;28;19916;-66
2023/09/19 06:29:37;;;;;;;;;;;;;;;-140.72;100.00;52788.59;5082390;28;20412;-67
2023/09/19 06:32:12;;;;;;;;;;;;;;;-140.72;100.00;52796.72;5074610;28;19924;-67
2023/09/19 06:34:43;;;;;;;;;;;;;;;-140.72;100.00;52821.06;5084547;28;19969;-67
2023/09/19 06:37:08;;;;;;;;;;;;;;;-140.72;100.00;52814.97;5088296;28;20018;-67
2023/09/19 06:39:33;;;;;;;;;;;;;;;-140.72;100.00;52792.66;5085528;28;19975;-67
2023/09/19 06:42:01;;;;;;;;;;;;;;;-140.72;100.00;52792.66;5084763;28;20359;-67
2023/09/19 06:44:27;;;;;;;;;;;;;;;-140.72;100.00;52817.00;5092836;28;19923;-67
2023/09/19 06:46:53;;;;;;;;;;;;;;;-140.72;100.00;52819.03;5075841;28;19923;-67
2023/09/19 06:49:18;;;;;;;;;;;;;;;-140.72;100.00;52790.63;5092155;28;19916;-67
2023/09/19 06:51:43;;;;;;;;;;;;;;;-140.72;100.00;52817.00;5085250;28;19965;-67
2023/09/19 06:54:09;;;;;;;;;;;;;;;-140.72;100.00;52833.22;5091675;28;19973;-67
2023/09/19 06:56:34;;;;;;;;;;;;;;;-140.72;100.00;52792.66;5083899;28;20296;-66
2023/09/19 06:58:59;;;;;;;;;;;;;;;-140.72;100.00;52790.63;5091950;28;20450;-66
2023/09/19 07:01:27;;;;;;;;;;;;;;;-140.72;100.00;52776.41;5076958;28;20124;-66
2023/09/19 07:03:53;;;;;;;;;;;;;;;-140.72;100.00;52774.38;5091816;28;19920;-67
2023/09/19 07:06:18;;;;;;;;;;;;;;;-140.72;100.00;52788.59;5084508;28;19966;-67
2023/09/19 07:08:45;;;;;;;;;;;;;;;-140.72;100.00;52752.06;5090455;28;19948;-67
2023/09/19 07:11:12;;;;;;;;;;;;;;;-140.72;100.00;52778.44;5084072;28;19925;-67
2023/09/19 07:13:38;;;;;;;;;;;;;;;-140.72;100.00;52798.72;5085877;28;19922;-66
2023/09/19 07:16:03;;;;;;;;;;;;;;;-140.72;100.00;52782.50;5091362;28;19946;-66
2023/09/19 07:18:29;;;;;;;;;;;;;;;-140.72;100.00;52776.41;5091887;28;19920;-66
2023/09/19 07:20:58;;;;;;;;;;;;;;;-140.72;100.00;52770.31;5071321;28;19943;-67
2023/09/19 07:23:25;;;;;;;;;;;;;;;-140.72;100.00;52764.25;5085812;28;20355;-67
2023/09/19 07:25:51;;;;;;;;;;;;;;;-140.72;100.00;52772.34;5078315;28;19923;-67
2023/09/19 07:28:16;;;;;;;;;;;;;;;-140.72;100.00;52727.72;5093672;28;19916;-68
2023/09/19 07:30:41;;;;;;;;;;;;;;;-140.72;100.00;52764.25;5087721;28;20014;-66
2023/09/19 07:33:07;;;;;;;;;;;;;;;-140.72;100.00;52748.00;5092927;28;20302;-66
2023/09/19 07:35:32;;;;;;;;;;;;;;;-140.72;100.00;52754.09;5079773;28;20031;-66
2023/09/19 07:38:01;;;;;;;;;;;;;;;-140.72;100.00;52768.28;5072074;28;19921;-67
2023/09/19 07:40:26;;;;;;;;;;;;;;;-140.72;100.00;52745.97;5088903;28;19941;-66
2023/09/19 07:42:52;;;;;;;;;;;;;;;-140.72;100.00;52756.13;5081931;28;19916;-66
2023/09/19 07:45:17;;;;;;;;;;;;;;;-140.72;100.00;52780.47;5087856;28;19966;-66
2023/09/19 07:47:49;;;;;;;;;;;;;;;-140.72;100.00;52766.25;5078525;28;19961;-66
2023/09/19 07:50:16;;;;;;;;;;;;;;;-140.72;100.00;52756.13;5084918;28;20354;-67
2023/09/19 07:52:41;;;;;;;;;;;;;;;-140.72;100.00;52768.28;5083492;28;19942;-67
2023/09/19 07:55:11;;;;;;;;;;;;;;;-140.72;100.00;52731.75;5085395;28;19921;-67
2023/09/19 07:57:37;;;;;;;;;;;;;;;-140.72;100.00;52748.00;5077991;28;19924;-68
2023/09/19 08:00:04;;;;;;;;;;;;;;;-140.72;100.00;52764.25;5081602;28;20016;-67
2023/09/19 08:02:30;;;;;;;;;;;;;;;-140.72;100.00;52772.34;5074058;28;19921;-67
2023/09/19 08:04:57;;;;;;;;;;;;;;;-140.72;100.00;52737.84;5082615;28;20379;-67
2023/09/19 08:07:23;;;;;;;;;;;;;;;-140.72;100.00;52731.75;5078315;28;19924;-67
2023/09/19 08:09:48;;;;;;;;;;;;;;;-140.72;100.00;52695.25;5072147;28;20264;-68
2023/09/19 08:12:14;;;;;;;;;;;;;;;-140.72;100.00;52741.91;5079638;28;20326;-68
2023/09/19 08:14:41;;;;;;;;;;;;;;;-140.72;100.00;52735.81;5072799;28;19924;-67
2023/09/19 08:17:08;;;;;;;;;;;;;;;-140.72;100.00;52707.41;5083428;28;19924;-68
2023/09/19 08:19:33;;;;;;;;;;;;;;;-140.72;100.00;52760.19;5076821;28;19962;-68
2023/09/19 08:21:58;;;;;;;;;;;;;;;-140.72;100.00;52725.69;5065067;28;19921;-67
2023/09/19 08:24:28;;;;;;;;;;;;;;;-140.72;100.00;52715.53;5092557;28;19924;-67
2023/09/19 08:26:54;;;;;;;;;;;;;;;-140.72;100.00;52715.53;5091120;28;20026;-67
2023/09/19 08:29:19;;;;;;;;;;;;;;;-140.72;100.00;52727.72;5073801;28;20397;-67
2023/09/19 08:31:45;;;;;;;;;;;;;;;-140.72;100.00;52723.66;5083467;28;20019;-68
2023/09/19 08:34:10;;;;;;;;;;;;;;;-140.72;100.00;52695.25;5080925;28;19923;-67
2023/09/19 08:36:37;;;;;;;;;;;;;;;-140.72;100.00;52699.31;5090175;28;20302;-67
2023/09/19 08:39:02;;;;;;;;;;;;;;;-140.72;100.00;52711.47;5076277;28;19917;-67
2023/09/19 08:41:27;;;;;;;;;;;;;;;-140.72;100.00;52705.38;5067022;28;19955;-68
2023/09/19 08:43:53;;;;;;;;;;;;;;;-140.72;100.00;52719.59;5071637;28;19942;-67
2023/09/19 08:46:19;;;;;;;;;;;;;;;-140.72;100.00;52695.25;5072480;28;20397;-67
2023/09/19 08:48:48;;;;;;;;;;;;;;;-140.72;100.00;52703.34;5085333;28;20334;-67
2023/09/19 08:51:18;;;;;;;;;;;;;;;-140.72;100.00;52731.75;5070693;28;19916;-67
2023/09/19 08:53:45;;;;;;;;;;;;;;;-140.72;100.00;52699.31;5069804;28;19942;-67
2023/09/19 08:56:10;;;;;;;;;;;;;;;-140.72;100.00;52717.56;5083769;28;19964;-67
2023/09/19 08:58:41;;;;;;;;;;;;;;;-140.72;100.00;52705.38;5079516;28;19970;-67
2023/09/19 09:01:07;;;;;;;;;;;;;;;-140.72;100.00;52705.38;5087890;28;19921;-67
2023/09/19 09:03:32;;;;;;;;;;;;;;;-140.72;100.00;52679.00;5074091;28;20018;-67
2023/09/19 09:05:58;;;;;;;;;;;;;;;-140.72;100.00;52642.47;5082335;28;19925;-67
2023/09/19 09:08:24;;;;;;;;;;;;;;;-140.72;100.00;52681.03;5092465;28;19916;-67
2023/09/19 09:10:50;;;;;;;;;;;;;;;-140.72;100.00;52676.97;5074222;28;19924;-67
2023/09/19 09:13:16;;;;;;;;;;;;;;;-140.72;100.00;52634.38;5071813;28;19973;-68
2023/09/19 09:15:44;;;;;;;;;;;;;;;-140.72;100.00;52654.66;5085518;28;19917;-67
2023/09/19 09:18:09;;;;;;;;;;;;;;;-140.72;100.00;52664.81;5092025;28;19922;-67
2023/09/19 09:20:35;;;;;;;;;;;;;;;-140.72;100.00;52630.31;5076723;28;19925;-67
2023/09/19 09:23:03;;;;;;;;;;;;;;;-140.72;100.00;52632.34;5080523;28;19916;-68
2023/09/19 09:25:47;;;;;;;;;;;;;;;-140.72;100.00;52638.41;5090609;28;20366;-67
2023/09/19 09:28:19;;;;;;;;;;;;;;;-140.72;100.00;52650.59;5089957;28;20290;-67
2023/09/19 09:30:44;;;;;;;;;;;;;;;-140.72;100.00;52668.84;5087101;28;19947;-67
2023/09/19 09:33:13;;;;;;;;;;;;;;;-140.72;100.00;52674.94;5086971;28;19924;-67
2023/09/19 09:36:00;;;;;;;;;;;;;;;-140.72;100.00;52709.44;5070605;28;19924;-67
2023/09/19 09:38:32;;;;;;;;;;;;;;;-140.72;100.00;52715.53;5074407;28;19948;-67
2023/09/19 09:41:01;;;;;;;;;;;;;;;-140.72;100.00;52658.72;5071100;28;20426;-67
2023/09/19 09:43:28;;;;;;;;;;;;;;;-140.72;100.00;52638.41;5085748;28;19916;-67
2023/09/19 09:51:39;;;;;;;;;;;;;;;-140.72;100.00;52634.38;5085210;28;20062;-69
2023/09/19 09:54:12;;;;;;;;;;;;;;;-140.72;100.00;52634.38;5088362;28;19963;-67
2023/09/19 09:56:52;;;;;;;;;;;;;;;-140.72;100.00;52652.63;5077571;28;19917;-68
2023/09/19 09:59:18;;;;;;;;;;;;;;;-140.72;100.00;52618.13;5071275;28;19916;-69
2023/09/19 10:01:48;;;;;;;;;;;;;;;-140.72;100.00;52603.94;5081772;28;20030;-68
2023/09/19 10:04:28;;;;;;;;;;;;;;;-140.72;100.00;52650.59;5085173;28;19920;-67
2023/09/19 10:06:53;;;;;;;;;;;;;;;-140.72;100.00;52610.00;5084502;28;19916;-70
2023/09/19 10:09:29;;;;;;;;;;;;;;;-140.72;100.00;52599.88;5089035;28;20263;-67
2023/09/19 10:12:03;;;;;;;;;;;;;;;-140.72;100.00;52612.03;5088800;28;19920;-67
2023/09/19 10:14:31;;;;;;;;;;;;;;;-140.72;100.00;52622.19;5090620;28;20407;-67
2023/09/19 10:17:03;;;;;;;;;;;;;;;-140.72;100.00;52601.91;5094616;28;20316;-68
2023/09/19 10:19:58;;;;;;;;;;;;;;;-140.72;100.00;52616.09;5084811;28;20016;-68
2023/09/19 10:22:26;;;;;;;;;;;;;;;-140.72;100.00;52638.41;5068142;28;20303;-71
2023/09/19 10:24:52;;;;;;;;;;;;;;;-140.72;100.00;52618.13;5086534;28;19927;-68
2023/09/19 10:27:19;;;;;;;;;;;;;;;-140.72;100.00;52599.88;5083158;28;19931;-68
2023/09/19 10:29:47;;;;;;;;;;;;;;;-140.72;100.00;52612.03;5066712;28;20373;-68
2023/09/19 10:32:18;;;;;;;;;;;;;;;-140.72;100.00;52605.94;5076946;28;20381;-68
2023/09/19 10:34:44;;;;;;;;;;;;;;;-140.72;100.00;52520.72;5095101;28;20259;-67
2023/09/19 10:37:12;;;;;;;;;;;;;;;-140.72;100.00;52536.97;5079383;28;19959;-68
2023/09/19 10:39:40;;;;;;;;;;;;;;;-140.72;100.00;52605.94;5084225;28;20452;-68
2023/09/19 10:42:05;;;;;;;;;;;;;;;-140.72;100.00;52601.91;5085873;28;20275;-68
2023/09/19 10:44:32;;;;;;;;;;;;;;;-140.72;100.00;52541.03;5078367;28;19916;-68
2023/09/19 10:46:58;;;;;;;;;;;;;;;-140.72;100.00;52577.53;5084336;28;20367;-68
2023/09/19 10:49:24;;;;;;;;;;;;;;;-140.72;100.00;52612.03;5085167;28;19922;-68
2023/09/19 10:51:54;;;;;;;;;;;;;;;-140.72;100.00;52618.13;5085167;28;20405;-68
2023/09/19 10:54:26;;;;;;;;;;;;;;;-140.72;100.00;52630.31;5089342;28;19941;-67
2023/09/19 10:56:52;;;;;;;;;;;;;;;-140.72;100.00;52577.53;5080895;28;19916;-68
2023/09/19 10:59:18;;;;;;;;;;;;;;;-140.72;100.00;52569.44;5079884;28;20016;-67
2023/09/19 11:01:48;;;;;;;;;;;;;;;-140.72;100.00;52577.53;5078111;28;20297;-67
2023/09/19 11:04:34;;;;;;;;;;;;;;;-140.72;100.00;52589.72;5082895;28;20000;-67
2023/09/19 11:07:11;;;;;;;;;;;;;;;-140.72;100.00;52553.19;5075521;28;19959;-67
2023/09/19 11:09:43;;;;;;;;;;;;;;;-140.72;100.00;52612.03;5083504;28;19917;-68
2023/09/19 11:12:09;;;;;;;;;;;;;;;-140.72;100.00;52638.41;5071231;28;20019;-67
2023/09/19 11:14:38;;;;;;;;;;;;;;;-140.72;100.00;52561.31;5082668;28;20443;-68
2023/09/19 11:17:15;;;;;;;;;;;;;;;-140.72;100.00;52518.69;5081020;28;19916;-67
2023/09/19 11:19:59;;;;;;;;;;;;;;;-140.72;100.00;52506.53;5084381;28;19917;-68
2023/09/19 11:22:26;;;;;;;;;;;;;;;-140.72;100.00;52502.47;5091269;28;19927;-67
2023/09/19 11:24:51;;;;;;;;;;;;;;;-140.72;100.00;52516.66;5093035;28;20439;-68
2023/09/19 11:27:18;;;;;;;;;;;;;;;-140.72;100.00;52581.59;5074660;28;19924;-68
2023/09/19 11:29:43;;;;;;;;;;;;;;;-140.72;100.00;52614.06;5081880;28;19943;-67
2023/09/19 11:32:09;;;;;;;;;;;;;;;-140.72;100.00;52612.03;5089815;28;19917;-68
2023/09/19 11:34:41;;;;;;;;;;;;;;;-140.72;100.00;52632.34;5080452;28;19920;-68
2023/09/19 11:37:11;;;;;;;;;;;;;;;-140.72;100.00;52628.28;5082941;28;20019;-67
2023/09/19 11:39:38;;;;;;;;;;;;;;;-140.72;100.00;52691.19;5081843;28;20402;-67
2023/09/19 11:42:23;;;;;;;;;;;;;;;-140.72;100.00;52634.38;5088163;28;19920;-68
2023/09/19 11:44:51;;;;;;;;;;;;;;;-140.72;100.00;52646.53;5088053;28;19916;-67
2023/09/19 11:47:18;;;;;;;;;;;;;;;-140.72;100.00;52648.56;5089899;28;19916;-67
2023/09/19 11:49:44;;;;;;;;;;;;;;;-140.72;100.00;52674.94;5088417;28;19916;-68
2023/09/19 11:52:09;;;;;;;;;;;;;;;-140.72;100.00;52679.00;5083925;28;20421;-68
2023/09/19 11:54:36;;;;;;;;;;;;;;;-140.72;100.00;52614.06;5073932;28;19925;-67
2023/09/19 11:57:02;;;;;;;;;;;;;;;-140.72;100.00;52628.28;5083294;28;19916;-68
2023/09/19 11:59:28;;;;;;;;;;;;;;;-140.72;100.00;52622.19;5069092;28;20302;-68
2023/09/19 12:01:57;;;;;;;;;;;;;;;-140.72;100.00;52650.59;5081684;28;20354;-69
2023/09/19 12:04:33;;;;;;;;;;;;;;;-140.72;100.00;52632.34;5078821;28;19924;-69
2023/09/19 12:06:58;;;;;;;;;;;;;;;-140.72;100.00;52626.25;5088897;28;19954;-68
2023/09/19 12:09:24;;;;;;;;;;;;;;;-140.72;100.00;52599.88;5071653;28;19964;-66
2023/09/19 12:11:51;;;;;;;;;;;;;;;-140.72;100.00;52610.00;5079565;28;19921;-67
2023/09/19 12:14:26;;;;;;;;;;;;;;;-140.72;100.00;52616.09;5082469;28;19917;-67
2023/09/19 12:16:58;;;;;;;;;;;;;;;-140.72;100.00;52620.16;5089381;28;19916;-67
2023/09/19 12:19:23;;;;;;;;;;;;;;;-140.72;100.00;52626.25;5073494;28;19985;-67
2023/09/19 12:21:59;;;;;;;;;;;;;;;-140.72;100.00;52607.97;5081062;28;20387;-67
2023/09/19 12:24:29;;;;;;;;;;;;;;;-140.72;100.00;52575.50;5085322;28;19916;-67
2023/09/19 12:27:01;;;;;;;;;;;;;;;-140.72;100.00;52581.59;5064600;28;19973;-67